sensor_id;sensor_type;location;lat;lon;timestamp;P1;durP1;ratioP1;P2;durP2;ratioP2
8654;SDS011;13500;52.514;13.462;2023-11-21T00:00:32;14.37;;;10.37;;
8654;SDS011;13500;52.514;13.462;2023-11-21T00:03:00;13.80;;;10.23;;
8654;SDS011;13500;52.514;13.462;2023-11-21T00:05:31;15.13;;;10.83;;
8654;SDS011;13500;52.514;13.462;2023-11-21T00:08:01;15.57;;;11.60;;
8654;SDS011;13500;52.514;13.462;2023-11-21T00:10:32;16.87;;;11.60;;
8654;SDS011;13500;52.514;13.462;2023-11-21T00:13:00;17.20;;;12.53;;
8654;SDS011;13500;52.514;13.462;2023-11-21T00:15:33;19.07;;;13.43;;
8654;SDS011;13500;52.514;13.462;2023-11-21T00:18:02;18.43;;;13.93;;
8654;SDS011;13500;52.514;13.462;2023-11-21T00:20:33;18.53;;;14.13;;
8654;SDS011;13500;52.514;13.462;2023-11-21T00:23:07;20.50;;;14.87;;
8654;SDS011;13500;52.514;13.462;2023-11-21T00:25:37;20.50;;;14.53;;
8654;SDS011;13500;52.514;13.462;2023-11-21T00:28:07;22.30;;;15.50;;
8654;SDS011;13500;52.514;13.462;2023-11-21T00:30:36;25.27;;;16.23;;
8654;SDS011;13500;52.514;13.462;2023-11-21T00:33:04;23.97;;;16.57;;
8654;SDS011;13500;52.514;13.462;2023-11-21T00:35:33;28.03;;;17.73;;
8654;SDS011;13500;52.514;13.462;2023-11-21T00:38:04;25.40;;;17.27;;
8654;SDS011;13500;52.514;13.462;2023-11-21T00:40:32;34.20;;;20.03;;
8654;SDS011;13500;52.514;13.462;2023-11-21T00:43:02;35.27;;;20.40;;
8654;SDS011;13500;52.514;13.462;2023-11-21T00:45:33;40.33;;;20.13;;
8654;SDS011;13500;52.514;13.462;2023-11-21T00:48:03;31.10;;;20.70;;
8654;SDS011;13500;52.514;13.462;2023-11-21T00:50:32;37.20;;;20.83;;
8654;SDS011;13500;52.514;13.462;2023-11-21T00:53:01;35.57;;;21.53;;
8654;SDS011;13500;52.514;13.462;2023-11-21T00:55:32;36.17;;;21.20;;
8654;SDS011;13500;52.514;13.462;2023-11-21T00:58:01;37.53;;;21.30;;
8654;SDS011;13500;52.514;13.462;2023-11-21T01:00:32;37.97;;;20.97;;
8654;SDS011;13500;52.514;13.462;2023-11-21T01:03:02;38.67;;;20.93;;
8654;SDS011;13500;52.514;13.462;2023-11-21T01:05:34;38.97;;;19.83;;
8654;SDS011;13500;52.514;13.462;2023-11-21T01:08:04;34.93;;;20.37;;
8654;SDS011;13500;52.514;13.462;2023-11-21T01:10:35;34.47;;;20.27;;
8654;SDS011;13500;52.514;13.462;2023-11-21T01:13:03;39.60;;;21.13;;
8654;SDS011;13500;52.514;13.462;2023-11-21T01:15:32;37.87;;;21.43;;
8654;SDS011;13500;52.514;13.462;2023-11-21T01:18:02;45.13;;;21.60;;
8654;SDS011;13500;52.514;13.462;2023-11-21T01:20:37;40.43;;;22.70;;
8654;SDS011;13500;52.514;13.462;2023-11-21T01:23:06;48.63;;;23.80;;
8654;SDS011;13500;52.514;13.462;2023-11-21T01:25:37;46.67;;;23.80;;
8654;SDS011;13500;52.514;13.462;2023-11-21T01:28:06;52.30;;;25.50;;
8654;SDS011;13500;52.514;13.462;2023-11-21T01:30:38;54.70;;;25.93;;
8654;SDS011;13500;52.514;13.462;2023-11-21T01:33:07;67.73;;;29.20;;
8654;SDS011;13500;52.514;13.462;2023-11-21T01:35:36;63.80;;;30.07;;
8654;SDS011;13500;52.514;13.462;2023-11-21T01:38:04;64.00;;;30.30;;
8654;SDS011;13500;52.514;13.462;2023-11-21T01:40:34;69.93;;;31.33;;
8654;SDS011;13500;52.514;13.462;2023-11-21T01:43:04;74.07;;;31.20;;
8654;SDS011;13500;52.514;13.462;2023-11-21T01:45:33;74.47;;;31.23;;
8654;SDS011;13500;52.514;13.462;2023-11-21T01:48:02;71.80;;;30.13;;
8654;SDS011;13500;52.514;13.462;2023-11-21T01:50:32;64.07;;;27.83;;
8654;SDS011;13500;52.514;13.462;2023-11-21T01:53:02;60.33;;;24.97;;
8654;SDS011;13500;52.514;13.462;2023-11-21T01:55:30;64.13;;;26.63;;
8654;SDS011;13500;52.514;13.462;2023-11-21T01:58:00;51.77;;;24.27;;
8654;SDS011;13500;52.514;13.462;2023-11-21T02:00:30;54.63;;;24.33;;
8654;SDS011;13500;52.514;13.462;2023-11-21T02:03:00;49.07;;;22.17;;
8654;SDS011;13500;52.514;13.462;2023-11-21T02:05:30;46.77;;;20.53;;
8654;SDS011;13500;52.514;13.462;2023-11-21T02:07:59;47.10;;;20.60;;
8654;SDS011;13500;52.514;13.462;2023-11-21T02:10:30;47.87;;;19.87;;
8654;SDS011;13500;52.514;13.462;2023-11-21T02:12:59;47.07;;;20.83;;
8654;SDS011;13500;52.514;13.462;2023-11-21T02:15:31;44.50;;;19.77;;
8654;SDS011;13500;52.514;13.462;2023-11-21T02:17:59;39.13;;;18.73;;
8654;SDS011;13500;52.514;13.462;2023-11-21T02:20:29;37.27;;;17.73;;
8654;SDS011;13500;52.514;13.462;2023-11-21T02:23:01;38.60;;;18.03;;
8654;SDS011;13500;52.514;13.462;2023-11-21T02:25:30;37.20;;;17.60;;
8654;SDS011;13500;52.514;13.462;2023-11-21T02:28:00;33.60;;;15.97;;
8654;SDS011;13500;52.514;13.462;2023-11-21T02:30:30;36.07;;;16.90;;
8654;SDS011;13500;52.514;13.462;2023-11-21T02:32:59;35.53;;;17.20;;
8654;SDS011;13500;52.514;13.462;2023-11-21T02:35:27;37.20;;;18.03;;
8654;SDS011;13500;52.514;13.462;2023-11-21T02:38:00;37.20;;;17.30;;
8654;SDS011;13500;52.514;13.462;2023-11-21T02:40:29;37.87;;;17.13;;
8654;SDS011;13500;52.514;13.462;2023-11-21T02:42:58;32.27;;;16.03;;
8654;SDS011;13500;52.514;13.462;2023-11-21T02:45:26;32.57;;;16.23;;
8654;SDS011;13500;52.514;13.462;2023-11-21T02:47:55;26.97;;;14.80;;
8654;SDS011;13500;52.514;13.462;2023-11-21T02:50:25;25.70;;;13.07;;
8654;SDS011;13500;52.514;13.462;2023-11-21T02:52:53;23.17;;;12.83;;
8654;SDS011;13500;52.514;13.462;2023-11-21T02:55:23;20.43;;;12.83;;
8654;SDS011;13500;52.514;13.462;2023-11-21T02:57:53;21.83;;;12.50;;
8654;SDS011;13500;52.514;13.462;2023-11-21T03:00:26;20.80;;;12.83;;
8654;SDS011;13500;52.514;13.462;2023-11-21T03:02:55;17.60;;;12.37;;
8654;SDS011;13500;52.514;13.462;2023-11-21T03:05:26;15.67;;;11.90;;
8654;SDS011;13500;52.514;13.462;2023-11-21T03:07:56;17.90;;;13.20;;
8654;SDS011;13500;52.514;13.462;2023-11-21T03:10:27;16.10;;;12.23;;
8654;SDS011;13500;52.514;13.462;2023-11-21T03:12:55;16.57;;;12.43;;
8654;SDS011;13500;52.514;13.462;2023-11-21T03:15:24;16.17;;;12.67;;
8654;SDS011;13500;52.514;13.462;2023-11-21T03:17:52;16.50;;;13.20;;
8654;SDS011;13500;52.514;13.462;2023-11-21T03:20:21;15.40;;;11.67;;
8654;SDS011;13500;52.514;13.462;2023-11-21T03:22:50;13.33;;;10.70;;
8654;SDS011;13500;52.514;13.462;2023-11-21T03:25:19;14.63;;;11.47;;
8654;SDS011;13500;52.514;13.462;2023-11-21T03:27:52;14.47;;;12.07;;
8654;SDS011;13500;52.514;13.462;2023-11-21T03:30:21;12.63;;;11.00;;
8654;SDS011;13500;52.514;13.462;2023-11-21T03:32:49;13.80;;;11.13;;
8654;SDS011;13500;52.514;13.462;2023-11-21T03:35:18;12.17;;;10.87;;
8654;SDS011;13500;52.514;13.462;2023-11-21T03:37:47;12.50;;;10.03;;
8654;SDS011;13500;52.514;13.462;2023-11-21T03:40:16;11.90;;;9.60;;
8654;SDS011;13500;52.514;13.462;2023-11-21T03:42:44;10.83;;;8.93;;
8654;SDS011;13500;52.514;13.462;2023-11-21T03:45:14;10.47;;;9.37;;
8654;SDS011;13500;52.514;13.462;2023-11-21T03:47:42;9.53;;;8.60;;
8654;SDS011;13500;52.514;13.462;2023-11-21T03:50:11;9.73;;;8.43;;
8654;SDS011;13500;52.514;13.462;2023-11-21T03:52:39;11.50;;;9.70;;
8654;SDS011;13500;52.514;13.462;2023-11-21T03:55:08;12.23;;;10.63;;
8654;SDS011;13500;52.514;13.462;2023-11-21T03:57:41;11.93;;;10.10;;
8654;SDS011;13500;52.514;13.462;2023-11-21T04:00:12;10.80;;;9.57;;
8654;SDS011;13500;52.514;13.462;2023-11-21T04:02:43;10.33;;;9.23;;
8654;SDS011;13500;52.514;13.462;2023-11-21T04:05:13;12.17;;;9.20;;
8654;SDS011;13500;52.514;13.462;2023-11-21T04:07:42;11.50;;;9.67;;
8654;SDS011;13500;52.514;13.462;2023-11-21T04:10:10;9.70;;;8.70;;
8654;SDS011;13500;52.514;13.462;2023-11-21T04:12:40;9.83;;;8.80;;
8654;SDS011;13500;52.514;13.462;2023-11-21T04:15:10;10.93;;;9.73;;
8654;SDS011;13500;52.514;13.462;2023-11-21T04:17:41;11.90;;;9.17;;
8654;SDS011;13500;52.514;13.462;2023-11-21T04:20:10;11.33;;;9.90;;
8654;SDS011;13500;52.514;13.462;2023-11-21T04:22:40;10.03;;;9.03;;
8654;SDS011;13500;52.514;13.462;2023-11-21T04:25:13;11.43;;;9.17;;
8654;SDS011;13500;52.514;13.462;2023-11-21T04:27:44;11.40;;;8.70;;
8654;SDS011;13500;52.514;13.462;2023-11-21T04:30:14;9.83;;;8.40;;
8654;SDS011;13500;52.514;13.462;2023-11-21T04:32:44;10.30;;;7.70;;
8654;SDS011;13500;52.514;13.462;2023-11-21T04:35:13;8.27;;;7.33;;
8654;SDS011;13500;52.514;13.462;2023-11-21T04:37:41;10.60;;;8.10;;
8654;SDS011;13500;52.514;13.462;2023-11-21T04:40:10;9.63;;;7.73;;
8654;SDS011;13500;52.514;13.462;2023-11-21T04:42:39;8.73;;;7.80;;
8654;SDS011;13500;52.514;13.462;2023-11-21T04:45:09;7.80;;;7.00;;
8654;SDS011;13500;52.514;13.462;2023-11-21T04:47:39;8.63;;;7.73;;
8654;SDS011;13500;52.514;13.462;2023-11-21T04:50:10;8.77;;;7.87;;
8654;SDS011;13500;52.514;13.462;2023-11-21T04:52:38;8.63;;;7.47;;
8654;SDS011;13500;52.514;13.462;2023-11-21T04:55:07;8.10;;;7.17;;
8654;SDS011;13500;52.514;13.462;2023-11-21T04:57:38;10.23;;;7.90;;
8654;SDS011;13500;52.514;13.462;2023-11-21T05:00:08;8.30;;;7.37;;
8654;SDS011;13500;52.514;13.462;2023-11-21T05:02:38;10.27;;;7.90;;
8654;SDS011;13500;52.514;13.462;2023-11-21T05:05:07;9.97;;;7.83;;
8654;SDS011;13500;52.514;13.462;2023-11-21T05:07:39;9.27;;;7.43;;
8654;SDS011;13500;52.514;13.462;2023-11-21T05:10:09;7.70;;;6.90;;
8654;SDS011;13500;52.514;13.462;2023-11-21T05:12:41;7.97;;;6.83;;
8654;SDS011;13500;52.514;13.462;2023-11-21T05:15:10;9.00;;;7.13;;
8654;SDS011;13500;52.514;13.462;2023-11-21T05:17:46;7.53;;;6.23;;
8654;SDS011;13500;52.514;13.462;2023-11-21T05:20:16;8.07;;;6.73;;
8654;SDS011;13500;52.514;13.462;2023-11-21T05:22:49;7.67;;;6.80;;
8654;SDS011;13500;52.514;13.462;2023-11-21T05:25:18;9.23;;;7.13;;
8654;SDS011;13500;52.514;13.462;2023-11-21T05:27:46;9.30;;;6.83;;
8654;SDS011;13500;52.514;13.462;2023-11-21T05:30:15;8.53;;;7.03;;
8654;SDS011;13500;52.514;13.462;2023-11-21T05:32:44;8.93;;;7.10;;
8654;SDS011;13500;52.514;13.462;2023-11-21T05:35:13;7.80;;;6.83;;
8654;SDS011;13500;52.514;13.462;2023-11-21T05:37:43;7.97;;;6.93;;
8654;SDS011;13500;52.514;13.462;2023-11-21T05:40:14;8.00;;;7.20;;
8654;SDS011;13500;52.514;13.462;2023-11-21T05:42:44;7.63;;;6.73;;
8654;SDS011;13500;52.514;13.462;2023-11-21T05:45:14;9.00;;;7.17;;
8654;SDS011;13500;52.514;13.462;2023-11-21T05:47:45;9.60;;;7.13;;
8654;SDS011;13500;52.514;13.462;2023-11-21T05:50:15;9.77;;;7.77;;
8654;SDS011;13500;52.514;13.462;2023-11-21T05:52:45;8.47;;;6.77;;
8654;SDS011;13500;52.514;13.462;2023-11-21T05:55:16;9.30;;;7.07;;
8654;SDS011;13500;52.514;13.462;2023-11-21T05:57:44;9.07;;;7.00;;
8654;SDS011;13500;52.514;13.462;2023-11-21T06:00:13;7.83;;;6.53;;
8654;SDS011;13500;52.514;13.462;2023-11-21T06:02:48;9.70;;;7.00;;
8654;SDS011;13500;52.514;13.462;2023-11-21T06:05:21;8.13;;;6.80;;
8654;SDS011;13500;52.514;13.462;2023-11-21T06:07:52;7.87;;;6.83;;
8654;SDS011;13500;52.514;13.462;2023-11-21T06:10:27;8.80;;;7.30;;
8654;SDS011;13500;52.514;13.462;2023-11-21T06:12:55;9.67;;;7.90;;
8654;SDS011;13500;52.514;13.462;2023-11-21T06:15:29;13.27;;;8.67;;
8654;SDS011;13500;52.514;13.462;2023-11-21T06:17:57;10.00;;;7.97;;
8654;SDS011;13500;52.514;13.462;2023-11-21T06:20:26;10.50;;;8.37;;
8654;SDS011;13500;52.514;13.462;2023-11-21T06:22:54;8.23;;;7.33;;
8654;SDS011;13500;52.514;13.462;2023-11-21T06:25:23;9.77;;;7.37;;
8654;SDS011;13500;52.514;13.462;2023-11-21T06:27:53;7.57;;;6.57;;
8654;SDS011;13500;52.514;13.462;2023-11-21T06:30:23;7.20;;;6.50;;
8654;SDS011;13500;52.514;13.462;2023-11-21T06:32:51;8.00;;;6.70;;
8654;SDS011;13500;52.514;13.462;2023-11-21T06:35:20;7.43;;;6.20;;
8654;SDS011;13500;52.514;13.462;2023-11-21T06:37:49;7.30;;;6.37;;
8654;SDS011;13500;52.514;13.462;2023-11-21T06:40:19;9.37;;;6.43;;
8654;SDS011;13500;52.514;13.462;2023-11-21T06:42:48;6.90;;;6.20;;
8654;SDS011;13500;52.514;13.462;2023-11-21T06:45:20;7.53;;;6.40;;
8654;SDS011;13500;52.514;13.462;2023-11-21T06:47:52;7.10;;;5.97;;
8654;SDS011;13500;52.514;13.462;2023-11-21T06:50:21;7.80;;;6.00;;
8654;SDS011;13500;52.514;13.462;2023-11-21T06:52:51;6.90;;;5.80;;
8654;SDS011;13500;52.514;13.462;2023-11-21T06:55:20;7.30;;;6.00;;
8654;SDS011;13500;52.514;13.462;2023-11-21T06:57:51;6.47;;;5.40;;
8654;SDS011;13500;52.514;13.462;2023-11-21T07:00:21;6.70;;;6.00;;
8654;SDS011;13500;52.514;13.462;2023-11-21T07:02:49;8.17;;;6.00;;
8654;SDS011;13500;52.514;13.462;2023-11-21T07:05:20;6.33;;;5.50;;
8654;SDS011;13500;52.514;13.462;2023-11-21T07:07:49;8.40;;;5.63;;
8654;SDS011;13500;52.514;13.462;2023-11-21T07:10:17;7.03;;;5.90;;
8654;SDS011;13500;52.514;13.462;2023-11-21T07:12:47;6.13;;;5.43;;
8654;SDS011;13500;52.514;13.462;2023-11-21T07:15:16;7.60;;;5.80;;
8654;SDS011;13500;52.514;13.462;2023-11-21T07:17:48;6.93;;;5.90;;
8654;SDS011;13500;52.514;13.462;2023-11-21T07:20:16;6.80;;;5.63;;
8654;SDS011;13500;52.514;13.462;2023-11-21T07:22:45;6.70;;;5.50;;
8654;SDS011;13500;52.514;13.462;2023-11-21T07:25:13;6.87;;;5.47;;
8654;SDS011;13500;52.514;13.462;2023-11-21T07:27:41;7.03;;;5.17;;
8654;SDS011;13500;52.514;13.462;2023-11-21T07:30:11;5.83;;;5.10;;
8654;SDS011;13500;52.514;13.462;2023-11-21T07:32:41;5.60;;;5.00;;
8654;SDS011;13500;52.514;13.462;2023-11-21T07:35:10;6.00;;;5.30;;
8654;SDS011;13500;52.514;13.462;2023-11-21T07:37:38;5.73;;;4.80;;
8654;SDS011;13500;52.514;13.462;2023-11-21T07:40:07;5.90;;;5.30;;
8654;SDS011;13500;52.514;13.462;2023-11-21T07:42:38;6.77;;;4.93;;
8654;SDS011;13500;52.514;13.462;2023-11-21T07:45:07;6.20;;;4.80;;
8654;SDS011;13500;52.514;13.462;2023-11-21T07:47:37;6.83;;;5.77;;
8654;SDS011;13500;52.514;13.462;2023-11-21T07:50:07;5.97;;;5.37;;
8654;SDS011;13500;52.514;13.462;2023-11-21T07:52:38;6.63;;;4.80;;
8654;SDS011;13500;52.514;13.462;2023-11-21T07:55:07;6.30;;;4.80;;
8654;SDS011;13500;52.514;13.462;2023-11-21T07:57:35;6.27;;;4.87;;
8654;SDS011;13500;52.514;13.462;2023-11-21T08:00:04;5.93;;;4.83;;
8654;SDS011;13500;52.514;13.462;2023-11-21T08:02:38;5.50;;;4.87;;
8654;SDS011;13500;52.514;13.462;2023-11-21T08:05:10;5.97;;;4.80;;
8654;SDS011;13500;52.514;13.462;2023-11-21T08:07:53;7.30;;;5.57;;
8654;SDS011;13500;52.514;13.462;2023-11-21T08:10:23;7.23;;;5.27;;
8654;SDS011;13500;52.514;13.462;2023-11-21T08:12:52;8.53;;;5.70;;
8654;SDS011;13500;52.514;13.462;2023-11-21T08:15:22;7.83;;;5.27;;
8654;SDS011;13500;52.514;13.462;2023-11-21T08:17:51;8.90;;;5.63;;
8654;SDS011;13500;52.514;13.462;2023-11-21T08:20:19;9.37;;;5.63;;
8654;SDS011;13500;52.514;13.462;2023-11-21T08:22:49;9.27;;;6.07;;
8654;SDS011;13500;52.514;13.462;2023-11-21T08:25:20;8.03;;;6.00;;
8654;SDS011;13500;52.514;13.462;2023-11-21T08:27:51;11.23;;;6.70;;
8654;SDS011;13500;52.514;13.462;2023-11-21T08:30:19;8.97;;;6.30;;
8654;SDS011;13500;52.514;13.462;2023-11-21T08:32:50;10.43;;;5.97;;
8654;SDS011;13500;52.514;13.462;2023-11-21T08:35:20;14.77;;;6.70;;
8654;SDS011;13500;52.514;13.462;2023-11-21T08:37:51;13.27;;;7.10;;
8654;SDS011;13500;52.514;13.462;2023-11-21T08:40:21;10.67;;;6.80;;
8654;SDS011;13500;52.514;13.462;2023-11-21T08:42:50;9.90;;;6.13;;
8654;SDS011;13500;52.514;13.462;2023-11-21T08:45:19;11.97;;;7.23;;
8654;SDS011;13500;52.514;13.462;2023-11-21T08:47:48;13.90;;;8.10;;
8654;SDS011;13500;52.514;13.462;2023-11-21T08:50:17;13.80;;;7.90;;
8654;SDS011;13500;52.514;13.462;2023-11-21T08:52:47;12.77;;;7.30;;
8654;SDS011;13500;52.514;13.462;2023-11-21T08:55:16;12.80;;;7.53;;
8654;SDS011;13500;52.514;13.462;2023-11-21T08:57:50;14.67;;;8.07;;
8654;SDS011;13500;52.514;13.462;2023-11-21T09:00:18;11.20;;;7.03;;
8654;SDS011;13500;52.514;13.462;2023-11-21T09:02:48;14.27;;;7.77;;
8654;SDS011;13500;52.514;13.462;2023-11-21T09:05:17;12.17;;;7.13;;
8654;SDS011;13500;52.514;13.462;2023-11-21T09:07:47;14.13;;;6.93;;
8654;SDS011;13500;52.514;13.462;2023-11-21T09:10:18;11.40;;;7.23;;
8654;SDS011;13500;52.514;13.462;2023-11-21T09:12:47;11.90;;;7.03;;
8654;SDS011;13500;52.514;13.462;2023-11-21T09:15:17;12.20;;;7.13;;
8654;SDS011;13500;52.514;13.462;2023-11-21T09:17:47;13.17;;;7.00;;
8654;SDS011;13500;52.514;13.462;2023-11-21T09:20:16;11.03;;;7.03;;
8654;SDS011;13500;52.514;13.462;2023-11-21T09:22:49;14.27;;;7.50;;
8654;SDS011;13500;52.514;13.462;2023-11-21T09:25:18;11.57;;;6.80;;
8654;SDS011;13500;52.514;13.462;2023-11-21T09:27:46;11.40;;;6.63;;
8654;SDS011;13500;52.514;13.462;2023-11-21T09:30:18;12.10;;;6.23;;
8654;SDS011;13500;52.514;13.462;2023-11-21T09:32:48;11.00;;;6.10;;
8654;SDS011;13500;52.514;13.462;2023-11-21T09:35:21;8.97;;;5.70;;
8654;SDS011;13500;52.514;13.462;2023-11-21T09:37:52;8.57;;;4.83;;
8654;SDS011;13500;52.514;13.462;2023-11-21T09:40:21;7.23;;;4.40;;
8654;SDS011;13500;52.514;13.462;2023-11-21T09:42:54;6.73;;;4.00;;
8654;SDS011;13500;52.514;13.462;2023-11-21T09:45:26;5.10;;;3.20;;
8654;SDS011;13500;52.514;13.462;2023-11-21T09:47:55;5.73;;;3.90;;
8654;SDS011;13500;52.514;13.462;2023-11-21T09:50:25;6.80;;;3.90;;
8654;SDS011;13500;52.514;13.462;2023-11-21T09:52:55;5.87;;;3.67;;
8654;SDS011;13500;52.514;13.462;2023-11-21T09:55:27;3.70;;;3.07;;
8654;SDS011;13500;52.514;13.462;2023-11-21T09:57:58;3.93;;;3.30;;
8654;SDS011;13500;52.514;13.462;2023-11-21T10:00:29;4.40;;;3.50;;
8654;SDS011;13500;52.514;13.462;2023-11-21T10:02:59;3.50;;;2.47;;
8654;SDS011;13500;52.514;13.462;2023-11-21T10:05:31;2.63;;;2.00;;
8654;SDS011;13500;52.514;13.462;2023-11-21T10:08:01;2.77;;;2.20;;
8654;SDS011;13500;52.514;13.462;2023-11-21T10:10:29;5.23;;;2.43;;
8654;SDS011;13500;52.514;13.462;2023-11-21T10:13:01;4.03;;;2.40;;
8654;SDS011;13500;52.514;13.462;2023-11-21T10:15:32;3.37;;;2.27;;
8654;SDS011;13500;52.514;13.462;2023-11-21T10:18:04;3.57;;;2.50;;
8654;SDS011;13500;52.514;13.462;2023-11-21T10:20:36;3.30;;;2.40;;
8654;SDS011;13500;52.514;13.462;2023-11-21T10:23:05;3.67;;;1.97;;
8654;SDS011;13500;52.514;13.462;2023-11-21T10:25:38;2.40;;;2.20;;
8654;SDS011;13500;52.514;13.462;2023-11-21T10:28:06;2.60;;;2.23;;
8654;SDS011;13500;52.514;13.462;2023-11-21T10:30:37;3.07;;;2.40;;
8654;SDS011;13500;52.514;13.462;2023-11-21T10:33:07;2.93;;;2.40;;
8654;SDS011;13500;52.514;13.462;2023-11-21T10:35:42;3.13;;;2.83;;
8654;SDS011;13500;52.514;13.462;2023-11-21T10:38:14;2.93;;;2.60;;
8654;SDS011;13500;52.514;13.462;2023-11-21T10:40:43;2.60;;;2.20;;
8654;SDS011;13500;52.514;13.462;2023-11-21T10:43:13;3.10;;;2.80;;
8654;SDS011;13500;52.514;13.462;2023-11-21T10:45:46;4.20;;;2.40;;
8654;SDS011;13500;52.514;13.462;2023-11-21T10:48:14;3.00;;;2.50;;
8654;SDS011;13500;52.514;13.462;2023-11-21T10:50:47;3.37;;;2.60;;
8654;SDS011;13500;52.514;13.462;2023-11-21T10:53:15;3.87;;;2.80;;
8654;SDS011;13500;52.514;13.462;2023-11-21T10:55:45;2.90;;;2.60;;
8654;SDS011;13500;52.514;13.462;2023-11-21T10:58:15;3.17;;;2.63;;
8654;SDS011;13500;52.514;13.462;2023-11-21T11:00:47;5.87;;;3.40;;
8654;SDS011;13500;52.514;13.462;2023-11-21T11:03:18;3.77;;;3.00;;
8654;SDS011;13500;52.514;13.462;2023-11-21T11:05:48;3.83;;;3.30;;
8654;SDS011;13500;52.514;13.462;2023-11-21T11:08:21;4.93;;;3.17;;
8654;SDS011;13500;52.514;13.462;2023-11-21T11:10:55;3.53;;;3.23;;
8654;SDS011;13500;52.514;13.462;2023-11-21T11:13:26;3.47;;;3.17;;
8654;SDS011;13500;52.514;13.462;2023-11-21T11:15:58;4.93;;;3.27;;
8654;SDS011;13500;52.514;13.462;2023-11-21T11:18:29;4.10;;;3.33;;
8654;SDS011;13500;52.514;13.462;2023-11-21T11:20:59;3.50;;;3.20;;
8654;SDS011;13500;52.514;13.462;2023-11-21T11:23:40;4.17;;;3.73;;
8654;SDS011;13500;52.514;13.462;2023-11-21T11:26:16;3.93;;;3.33;;
8654;SDS011;13500;52.514;13.462;2023-11-21T11:28:52;4.67;;;4.17;;
8654;SDS011;13500;52.514;13.462;2023-11-21T11:31:31;4.50;;;3.33;;
8654;SDS011;13500;52.514;13.462;2023-11-21T11:34:07;4.10;;;3.63;;
8654;SDS011;13500;52.514;13.462;2023-11-21T11:36:43;4.87;;;3.60;;
8654;SDS011;13500;52.514;13.462;2023-11-21T11:39:29;5.77;;;4.00;;
8654;SDS011;13500;52.514;13.462;2023-11-21T11:41:58;3.33;;;3.03;;
8654;SDS011;13500;52.514;13.462;2023-11-21T11:44:46;4.23;;;3.37;;
8654;SDS011;13500;52.514;13.462;2023-11-21T11:47:23;5.37;;;3.17;;
8654;SDS011;13500;52.514;13.462;2023-11-21T11:50:05;4.40;;;3.40;;
8654;SDS011;13500;52.514;13.462;2023-11-21T11:52:42;4.77;;;3.10;;
8654;SDS011;13500;52.514;13.462;2023-11-21T11:55:13;3.87;;;3.00;;
8654;SDS011;13500;52.514;13.462;2023-11-21T11:57:47;6.07;;;3.27;;
8654;SDS011;13500;52.514;13.462;2023-11-21T12:00:22;4.30;;;2.87;;
8654;SDS011;13500;52.514;13.462;2023-11-21T12:03:08;4.27;;;3.00;;
8654;SDS011;13500;52.514;13.462;2023-11-21T12:05:39;3.47;;;2.77;;
8654;SDS011;13500;52.514;13.462;2023-11-21T12:08:10;3.43;;;2.87;;
8654;SDS011;13500;52.514;13.462;2023-11-21T12:10:40;3.40;;;3.00;;
8654;SDS011;13500;52.514;13.462;2023-11-21T12:13:11;4.87;;;3.40;;
8654;SDS011;13500;52.514;13.462;2023-11-21T12:15:41;3.80;;;2.50;;
8654;SDS011;13500;52.514;13.462;2023-11-21T12:18:14;4.00;;;3.03;;
8654;SDS011;13500;52.514;13.462;2023-11-21T12:20:43;3.40;;;3.10;;
8654;SDS011;13500;52.514;13.462;2023-11-21T12:23:15;4.10;;;2.73;;
8654;SDS011;13500;52.514;13.462;2023-11-21T12:25:43;3.37;;;2.90;;
8654;SDS011;13500;52.514;13.462;2023-11-21T12:28:12;4.20;;;2.90;;
8654;SDS011;13500;52.514;13.462;2023-11-21T12:30:41;3.07;;;2.77;;
8654;SDS011;13500;52.514;13.462;2023-11-21T12:33:10;4.40;;;2.60;;
8654;SDS011;13500;52.514;13.462;2023-11-21T12:35:45;2.67;;;2.47;;
8654;SDS011;13500;52.514;13.462;2023-11-21T12:38:15;3.53;;;2.73;;
8654;SDS011;13500;52.514;13.462;2023-11-21T12:40:45;3.47;;;2.50;;
8654;SDS011;13500;52.514;13.462;2023-11-21T12:43:14;4.80;;;2.70;;
8654;SDS011;13500;52.514;13.462;2023-11-21T12:45:44;3.33;;;2.57;;
8654;SDS011;13500;52.514;13.462;2023-11-21T12:48:14;3.07;;;2.30;;
8654;SDS011;13500;52.514;13.462;2023-11-21T12:50:51;4.87;;;3.43;;
8654;SDS011;13500;52.514;13.462;2023-11-21T12:53:21;3.87;;;2.93;;
8654;SDS011;13500;52.514;13.462;2023-11-21T12:55:51;3.00;;;2.70;;
8654;SDS011;13500;52.514;13.462;2023-11-21T12:58:19;3.60;;;3.03;;
8654;SDS011;13500;52.514;13.462;2023-11-21T13:00:49;4.27;;;3.10;;
8654;SDS011;13500;52.514;13.462;2023-11-21T13:03:20;3.50;;;3.20;;
8654;SDS011;13500;52.514;13.462;2023-11-21T13:05:55;3.67;;;3.07;;
8654;SDS011;13500;52.514;13.462;2023-11-21T13:08:26;3.13;;;2.70;;
8654;SDS011;13500;52.514;13.462;2023-11-21T13:10:57;3.73;;;2.97;;
8654;SDS011;13500;52.514;13.462;2023-11-21T13:13:25;3.13;;;2.70;;
8654;SDS011;13500;52.514;13.462;2023-11-21T13:15:56;3.10;;;2.80;;
8654;SDS011;13500;52.514;13.462;2023-11-21T13:18:28;3.10;;;2.73;;
8654;SDS011;13500;52.514;13.462;2023-11-21T13:21:02;3.90;;;3.13;;
8654;SDS011;13500;52.514;13.462;2023-11-21T13:23:37;3.10;;;2.80;;
8654;SDS011;13500;52.514;13.462;2023-11-21T13:26:08;3.00;;;2.70;;
8654;SDS011;13500;52.514;13.462;2023-11-21T13:28:37;3.50;;;3.20;;
8654;SDS011;13500;52.514;13.462;2023-11-21T13:31:07;4.67;;;3.27;;
8654;SDS011;13500;52.514;13.462;2023-11-21T13:33:48;4.57;;;3.37;;
8654;SDS011;13500;52.514;13.462;2023-11-21T13:36:26;5.50;;;4.23;;
8654;SDS011;13500;52.514;13.462;2023-11-21T13:38:58;5.30;;;3.73;;
8654;SDS011;13500;52.514;13.462;2023-11-21T13:41:31;5.23;;;4.57;;
8654;SDS011;13500;52.514;13.462;2023-11-21T13:44:00;5.63;;;4.43;;
8654;SDS011;13500;52.514;13.462;2023-11-21T13:46:42;5.67;;;5.07;;
8654;SDS011;13500;52.514;13.462;2023-11-21T13:49:13;6.00;;;5.27;;
8654;SDS011;13500;52.514;13.462;2023-11-21T13:51:44;7.40;;;4.80;;
8654;SDS011;13500;52.514;13.462;2023-11-21T13:54:16;5.90;;;5.03;;
8654;SDS011;13500;52.514;13.462;2023-11-21T13:56:47;5.50;;;4.80;;
8654;SDS011;13500;52.514;13.462;2023-11-21T13:59:17;6.13;;;4.27;;
8654;SDS011;13500;52.514;13.462;2023-11-21T14:01:49;7.43;;;5.60;;
8654;SDS011;13500;52.514;13.462;2023-11-21T14:04:27;5.87;;;4.90;;
8654;SDS011;13500;52.514;13.462;2023-11-21T14:07:23;5.63;;;4.87;;
8654;SDS011;13500;52.514;13.462;2023-11-21T14:09:59;6.47;;;5.30;;
8654;SDS011;13500;52.514;13.462;2023-11-21T14:12:28;6.30;;;5.70;;
8654;SDS011;13500;52.514;13.462;2023-11-21T14:15:07;8.70;;;6.80;;
8654;SDS011;13500;52.514;13.462;2023-11-21T14:17:39;8.27;;;6.83;;
8654;SDS011;13500;52.514;13.462;2023-11-21T14:20:08;8.90;;;7.40;;
8654;SDS011;13500;52.514;13.462;2023-11-21T14:22:46;9.00;;;7.83;;
8654;SDS011;13500;52.514;13.462;2023-11-21T14:25:16;11.03;;;9.27;;
8654;SDS011;13500;52.514;13.462;2023-11-21T14:27:47;11.37;;;9.07;;
8654;SDS011;13500;52.514;13.462;2023-11-21T14:30:17;13.10;;;9.37;;
8654;SDS011;13500;52.514;13.462;2023-11-21T14:32:49;11.43;;;9.60;;
8654;SDS011;13500;52.514;13.462;2023-11-21T14:35:19;14.03;;;11.73;;
8654;SDS011;13500;52.514;13.462;2023-11-21T14:37:50;15.87;;;12.37;;
8654;SDS011;13500;52.514;13.462;2023-11-21T14:40:20;15.87;;;12.87;;
8654;SDS011;13500;52.514;13.462;2023-11-21T14:42:51;15.23;;;12.50;;
8654;SDS011;13500;52.514;13.462;2023-11-21T14:45:20;15.27;;;12.47;;
8654;SDS011;13500;52.514;13.462;2023-11-21T14:47:50;18.23;;;14.30;;
8654;SDS011;13500;52.514;13.462;2023-11-21T14:50:25;18.27;;;13.47;;
8654;SDS011;13500;52.514;13.462;2023-11-21T14:53:19;15.33;;;13.17;;
8654;SDS011;13500;52.514;13.462;2023-11-21T14:56:10;17.13;;;13.53;;
8654;SDS011;13500;52.514;13.462;2023-11-21T14:58:51;18.47;;;13.77;;